createdAt,value
2022-08-21T00:04:30.531Z,76
2022-08-21T00:10:11.231Z,72
2022-08-21T00:15:53.070Z,66
2022-08-21T00:21:36.781Z,64
2022-08-21T00:27:17.368Z,74
2022-08-21T00:32:58.932Z,72
2022-08-21T00:38:39.580Z,76
2022-08-21T00:44:19.817Z,64
2022-08-21T00:49:59.899Z,76
2022-08-21T00:55:40.162Z,64
2022-08-21T01:01:20.782Z,60
2022-08-21T01:07:01.567Z,74
2022-08-21T01:12:41.719Z,58
2022-08-21T01:18:21.970Z,72
2022-08-21T01:24:02.440Z,62
2022-08-21T01:29:42.908Z,58
2022-08-21T01:35:23.151Z,72
2022-08-21T01:41:03.216Z,72
2022-08-21T01:52:23.822Z,62
2022-08-21T01:58:03.897Z,64
2022-08-21T02:03:43.977Z,70
2022-08-21T02:09:24.840Z,74
2022-08-21T02:15:08.267Z,78
2022-08-21T02:20:48.520Z,64
2022-08-21T02:26:35.509Z,68
2022-08-21T02:32:16.459Z,62
2022-08-21T02:37:56.547Z,66
2022-08-21T02:43:36.590Z,58
2022-08-21T02:49:16.760Z,74
2022-08-21T02:54:56.908Z,68
2022-08-21T03:00:37.173Z,102
2022-08-21T03:06:17.469Z,64
2022-08-21T03:11:57.671Z,72
2022-08-21T03:17:37.952Z,72
2022-08-21T03:23:20.089Z,76
2022-08-21T03:29:00.404Z,70
2022-08-21T03:34:41.294Z,56
2022-08-21T03:40:21.860Z,76
2022-08-21T03:46:01.933Z,72
2022-08-21T03:51:42.080Z,62
2022-08-21T03:57:22.076Z,70
2022-08-21T04:03:02.160Z,64
2022-08-21T04:08:42.767Z,74
2022-08-21T04:14:23.204Z,60
2022-08-21T04:20:03.408Z,56
2022-08-21T04:25:45.834Z,70
2022-08-21T04:31:26.327Z,56
2022-08-21T04:37:06.964Z,76
2022-08-21T04:42:47.201Z,60
2022-08-21T04:48:27.579Z,70
2022-08-21T04:54:07.839Z,60
2022-08-21T04:59:48.062Z,66
2022-08-21T05:05:28.253Z,66
2022-08-21T05:11:08.691Z,70
2022-08-21T05:16:49.126Z,74
2022-08-21T05:22:29.208Z,64
2022-08-21T05:28:09.565Z,60
2022-08-21T05:33:52.514Z,68
2022-08-21T05:40:25.125Z,72
2022-08-21T05:46:07.038Z,64
2022-08-21T05:51:47.634Z,70
2022-08-21T05:57:28.509Z,66
2022-08-21T06:03:08.919Z,76
2022-08-21T06:08:49.547Z,66
2022-08-21T06:14:29.779Z,76
2022-08-21T06:20:10.365Z,72
2022-08-21T06:25:50.720Z,74
2022-08-21T06:31:31.362Z,72
2022-08-21T06:37:11.472Z,66
2022-08-21T06:42:51.970Z,76
2022-08-21T06:48:32.227Z,70
2022-08-21T06:54:12.413Z,68
2022-08-21T06:59:52.675Z,76
2022-08-21T07:05:33.232Z,66
2022-08-21T07:11:13.920Z,76
2022-08-21T07:16:57.027Z,84
2022-08-21T07:22:38.433Z,76
2022-08-21T07:28:18.422Z,78
2022-08-21T07:33:58.815Z,18
2022-08-21T07:39:39.501Z,16
2022-08-21T07:51:03.539Z,70
2022-08-21T07:56:44.378Z,58
2022-08-21T08:02:24.111Z,28
2022-08-21T08:08:04.936Z,22
2022-08-21T08:13:44.930Z,26
2022-08-21T08:19:25.487Z,42
2022-08-21T08:25:13.613Z,14
2022-08-21T08:30:56.558Z,26
2022-08-21T08:36:40.804Z,8
2022-08-21T08:42:38.512Z,2
2022-08-21T08:48:21.168Z,26
2022-08-21T08:54:01.665Z,4
2022-08-21T08:59:47.196Z,0
2022-08-21T09:05:28.134Z,0
2022-08-21T09:11:08.186Z,0
2022-08-21T09:16:54.340Z,0
2022-08-21T09:22:37.133Z,2
2022-08-21T09:28:38.950Z,0
2022-08-21T09:34:30.229Z,0
2022-08-21T09:40:11.491Z,2
2022-08-21T09:46:00.278Z,2
2022-08-21T09:57:24.972Z,0
2022-08-21T10:03:05.641Z,0
2022-08-21T10:08:46.040Z,2
2022-08-21T10:14:27.793Z,2
2022-08-21T10:20:09.320Z,0
2022-08-21T10:26:14.932Z,8
2022-08-21T10:31:58.886Z,0
2022-08-21T10:43:02.355Z,2
2022-08-21T10:48:42.974Z,0
2022-08-21T10:54:26.105Z,0
2022-08-21T11:00:06.837Z,24
2022-08-21T11:05:51.578Z,2
2022-08-21T11:11:36.706Z,18
2022-08-21T11:17:22.684Z,0
2022-08-21T11:23:06.790Z,0
2022-08-21T11:28:53.940Z,0
2022-08-21T11:34:35.630Z,2
2022-08-21T11:40:16.519Z,0
2022-08-21T11:45:57.217Z,0
2022-08-21T11:51:37.606Z,0
2022-08-21T11:57:22.604Z,0
2022-08-21T12:03:03.260Z,0
2022-08-21T12:08:43.369Z,0
2022-08-21T12:20:04.612Z,2
2022-08-21T12:25:44.638Z,0
2022-08-21T12:31:26.973Z,0
2022-08-21T12:37:08.027Z,0
2022-08-21T12:42:59.712Z,2
2022-08-21T12:48:41.187Z,4
2022-08-21T12:54:21.880Z,8
2022-08-21T13:00:02.174Z,0
2022-08-21T13:05:42.684Z,0
2022-08-21T13:11:34.567Z,0
2022-08-21T13:17:26.914Z,0
2022-08-21T13:23:12.759Z,0
2022-08-21T13:28:53.697Z,0
2022-08-21T13:34:33.708Z,0
2022-08-21T13:40:17.024Z,22
2022-08-21T13:45:57.336Z,26
2022-08-21T13:51:38.861Z,24
2022-08-21T13:57:20.898Z,22
2022-08-21T14:08:44.378Z,30
2022-08-21T14:14:24.568Z,32
2022-08-21T14:20:04.857Z,14
2022-08-21T14:25:46.288Z,16
2022-08-21T14:31:31.045Z,38
2022-08-21T14:37:13.808Z,16
2022-08-21T14:42:57.280Z,2
2022-08-21T14:48:38.122Z,0
2022-08-21T14:54:32.761Z,22
2022-08-21T15:00:13.650Z,76
2022-08-21T15:05:53.904Z,84
2022-08-21T15:11:43.646Z,86
2022-08-21T15:17:29.342Z,80
2022-08-21T15:23:16.083Z,82
2022-08-21T15:28:56.734Z,84
2022-08-21T15:34:37.334Z,78
2022-08-21T15:45:20.624Z,74
2022-08-21T15:51:01.741Z,74
2022-08-21T15:56:42.227Z,76
2022-08-21T16:02:22.213Z,82
2022-08-21T16:08:06.524Z,72
2022-08-21T16:13:47.906Z,68
2022-08-21T16:19:28.492Z,70
2022-08-21T16:25:09.714Z,82
2022-08-21T16:30:49.799Z,80
2022-08-21T16:36:30.893Z,74
2022-08-21T16:42:12.535Z,72
2022-08-21T16:47:53.982Z,84
2022-08-21T16:53:34.245Z,78
2022-08-21T16:59:18.033Z,82
2022-08-21T17:04:58.342Z,84
2022-08-21T17:10:38.198Z,80
2022-08-21T17:16:18.750Z,82
2022-08-21T17:21:58.864Z,82
2022-08-21T17:27:42.429Z,76
2022-08-21T17:33:23.055Z,82
2022-08-21T17:39:03.338Z,82
2022-08-21T17:50:26.845Z,80
2022-08-21T17:56:07.044Z,86
2022-08-21T18:01:49.398Z,72
2022-08-21T18:07:33.989Z,70
2022-08-21T18:13:14.146Z,66
2022-08-21T18:18:54.791Z,70
2022-08-21T18:24:41.179Z,68
2022-08-21T18:30:24.160Z,68
2022-08-21T18:36:05.214Z,80
2022-08-21T18:46:46.226Z,122
2022-08-21T18:52:33.886Z,78
2022-08-21T18:58:14.839Z,72
2022-08-21T19:04:02.113Z,64
2022-08-21T19:14:46.599Z,108
2022-08-21T19:20:27.769Z,66
2022-08-21T19:26:08.267Z,78
2022-08-21T19:31:48.667Z,84
2022-08-21T19:37:35.598Z,70
2022-08-21T19:43:23.822Z,74
2022-08-21T19:54:50.516Z,80
2022-08-21T20:00:44.305Z,74
2022-08-21T20:06:24.995Z,76
2022-08-21T20:12:11.002Z,64
2022-08-21T20:17:51.208Z,70
2022-08-21T20:23:34.613Z,70
2022-08-21T20:29:39.741Z,66
2022-08-21T20:35:28.875Z,70
2022-08-21T22:53:20.587Z,66
2022-08-21T22:59:01.472Z,76
2022-08-21T23:04:45.112Z,66
2022-08-21T23:10:31.946Z,72
2022-08-21T23:16:19.508Z,62
2022-08-21T23:22:04.753Z,68
2022-08-21T23:27:44.932Z,66
2022-08-21T23:33:38.973Z,66
2022-08-21T23:39:21.026Z,72
